Terminal Aerodrome Forecast
Issued by NWS Memphis, TN

Home | Current Version | Previous Version | Text Only | Print | Product List | Glossary On
Versions: 1 2 3 4 5 6 7 8 9 10 11 12
000
FTUS44 KMEG 231130
TAFJBR
TAF
KJBR 231130Z 2312/2412 34006KT 5SM -SHRA BR OVC007
     FM231700 30008KT 5SM -SHRA BR SCT007 BKN015 OVC030
     FM240100 VRB04KT P6SM OVC005
     FM240800 33005KT 3SM BR OVC003=

USA.gov is the U.S. government's official web portal to all federal, state and local government web resources and services.